sensor_id;sensor_type;location;lat;lon;timestamp;P1;durP1;ratioP1;P2;durP2;ratioP2
17670;SDS011;8954;48.694;8.940;2022-12-18T00:01:44;22.87;;;17.97;;
17670;SDS011;8954;48.694;8.940;2022-12-18T00:04:23;28.47;;;20.60;;
17670;SDS011;8954;48.694;8.940;2022-12-18T00:06:49;23.53;;;19.53;;
17670;SDS011;8954;48.694;8.940;2022-12-18T00:09:15;24.77;;;19.97;;
17670;SDS011;8954;48.694;8.940;2022-12-18T00:11:41;22.60;;;17.93;;
17670;SDS011;8954;48.694;8.940;2022-12-18T00:14:07;21.17;;;18.13;;
17670;SDS011;8954;48.694;8.940;2022-12-18T00:16:35;23.43;;;17.93;;
17670;SDS011;8954;48.694;8.940;2022-12-18T00:19:02;18.57;;;15.53;;
17670;SDS011;8954;48.694;8.940;2022-12-18T00:21:29;20.00;;;17.27;;
17670;SDS011;8954;48.694;8.940;2022-12-18T00:23:55;20.43;;;15.10;;
17670;SDS011;8954;48.694;8.940;2022-12-18T00:26:22;20.70;;;16.03;;
17670;SDS011;8954;48.694;8.940;2022-12-18T00:28:52;23.87;;;19.00;;
17670;SDS011;8954;48.694;8.940;2022-12-18T00:31:21;21.80;;;17.50;;
17670;SDS011;8954;48.694;8.940;2022-12-18T00:33:47;23.13;;;18.23;;
17670;SDS011;8954;48.694;8.940;2022-12-18T00:36:15;24.07;;;19.17;;
17670;SDS011;8954;48.694;8.940;2022-12-18T00:38:42;23.90;;;18.77;;
17670;SDS011;8954;48.694;8.940;2022-12-18T00:41:09;20.47;;;17.30;;
17670;SDS011;8954;48.694;8.940;2022-12-18T00:43:36;23.47;;;17.23;;
17670;SDS011;8954;48.694;8.940;2022-12-18T00:46:03;19.50;;;15.73;;
17670;SDS011;8954;48.694;8.940;2022-12-18T00:48:28;18.87;;;16.27;;
17670;SDS011;8954;48.694;8.940;2022-12-18T00:50:55;22.73;;;18.10;;
17670;SDS011;8954;48.694;8.940;2022-12-18T00:53:20;23.47;;;17.63;;
17670;SDS011;8954;48.694;8.940;2022-12-18T00:55:46;23.07;;;18.83;;
17670;SDS011;8954;48.694;8.940;2022-12-18T00:58:12;25.80;;;19.43;;
17670;SDS011;8954;48.694;8.940;2022-12-18T01:00:42;23.53;;;18.60;;
17670;SDS011;8954;48.694;8.940;2022-12-18T01:03:09;22.77;;;18.10;;
17670;SDS011;8954;48.694;8.940;2022-12-18T01:05:39;19.77;;;15.97;;
17670;SDS011;8954;48.694;8.940;2022-12-18T01:08:05;21.00;;;14.27;;
17670;SDS011;8954;48.694;8.940;2022-12-18T01:10:31;22.57;;;16.97;;
17670;SDS011;8954;48.694;8.940;2022-12-18T01:12:56;21.70;;;16.30;;
17670;SDS011;8954;48.694;8.940;2022-12-18T01:15:22;20.63;;;15.60;;
17670;SDS011;8954;48.694;8.940;2022-12-18T01:17:47;20.53;;;16.10;;
17670;SDS011;8954;48.694;8.940;2022-12-18T01:20:13;19.93;;;16.93;;
17670;SDS011;8954;48.694;8.940;2022-12-18T01:22:39;17.07;;;13.70;;
17670;SDS011;8954;48.694;8.940;2022-12-18T01:25:04;19.33;;;16.20;;
17670;SDS011;8954;48.694;8.940;2022-12-18T01:27:31;20.37;;;15.43;;
17670;SDS011;8954;48.694;8.940;2022-12-18T01:29:58;20.87;;;16.83;;
17670;SDS011;8954;48.694;8.940;2022-12-18T01:32:23;17.87;;;14.43;;
17670;SDS011;8954;48.694;8.940;2022-12-18T01:34:49;19.87;;;15.43;;
17670;SDS011;8954;48.694;8.940;2022-12-18T01:37:14;18.27;;;15.77;;
17670;SDS011;8954;48.694;8.940;2022-12-18T01:39:40;24.13;;;17.47;;
17670;SDS011;8954;48.694;8.940;2022-12-18T01:42:10;20.57;;;16.97;;
17670;SDS011;8954;48.694;8.940;2022-12-18T01:52:48;19.97;;;14.30;;
17670;SDS011;8954;48.694;8.940;2022-12-18T01:55:16;20.13;;;15.50;;
17670;SDS011;8954;48.694;8.940;2022-12-18T01:57:45;20.87;;;16.70;;
17670;SDS011;8954;48.694;8.940;2022-12-18T02:00:14;23.47;;;16.13;;
17670;SDS011;8954;48.694;8.940;2022-12-18T02:02:42;18.00;;;15.03;;
17670;SDS011;8954;48.694;8.940;2022-12-18T02:05:09;18.40;;;14.73;;
17670;SDS011;8954;48.694;8.940;2022-12-18T02:10:36;16.50;;;13.97;;
17670;SDS011;8954;48.694;8.940;2022-12-18T02:13:12;15.90;;;13.00;;
17670;SDS011;8954;48.694;8.940;2022-12-18T02:15:52;17.33;;;14.70;;
17670;SDS011;8954;48.694;8.940;2022-12-18T02:18:21;17.23;;;14.40;;
17670;SDS011;8954;48.694;8.940;2022-12-18T02:28:59;16.47;;;12.40;;
17670;SDS011;8954;48.694;8.940;2022-12-18T02:31:30;18.60;;;13.40;;
17670;SDS011;8954;48.694;8.940;2022-12-18T02:34:02;18.30;;;15.50;;
17670;SDS011;8954;48.694;8.940;2022-12-18T02:36:30;18.23;;;13.80;;
17670;SDS011;8954;48.694;8.940;2022-12-18T02:38:58;15.33;;;13.73;;
17670;SDS011;8954;48.694;8.940;2022-12-18T02:41:26;19.77;;;13.53;;
17670;SDS011;8954;48.694;8.940;2022-12-18T02:43:56;16.40;;;12.40;;
17670;SDS011;8954;48.694;8.940;2022-12-18T02:46:34;12.27;;;10.70;;
17670;SDS011;8954;48.694;8.940;2022-12-18T02:49:23;14.33;;;11.97;;
17670;SDS011;8954;48.694;8.940;2022-12-18T02:52:30;11.30;;;10.10;;
17670;SDS011;8954;48.694;8.940;2022-12-18T02:57:57;14.87;;;11.53;;
17670;SDS011;8954;48.694;8.940;2022-12-18T03:00:33;13.13;;;11.43;;
17670;SDS011;8954;48.694;8.940;2022-12-18T03:03:21;11.73;;;10.53;;
17670;SDS011;8954;48.694;8.940;2022-12-18T03:05:56;13.40;;;11.27;;
17670;SDS011;8954;48.694;8.940;2022-12-18T03:08:30;15.57;;;12.57;;
17670;SDS011;8954;48.694;8.940;2022-12-18T03:11:03;13.47;;;11.83;;
17670;SDS011;8954;48.694;8.940;2022-12-18T03:13:43;13.13;;;11.50;;
17670;SDS011;8954;48.694;8.940;2022-12-18T03:16:16;15.63;;;11.30;;
17670;SDS011;8954;48.694;8.940;2022-12-18T03:18:54;14.97;;;13.17;;
17670;SDS011;8954;48.694;8.940;2022-12-18T03:21:28;13.30;;;11.90;;
17670;SDS011;8954;48.694;8.940;2022-12-18T03:23:58;14.57;;;12.30;;
17670;SDS011;8954;48.694;8.940;2022-12-18T03:26:24;13.90;;;11.77;;
17670;SDS011;8954;48.694;8.940;2022-12-18T03:28:53;16.67;;;13.40;;
17670;SDS011;8954;48.694;8.940;2022-12-18T03:31:22;12.97;;;11.57;;
17670;SDS011;8954;48.694;8.940;2022-12-18T03:33:52;14.40;;;12.60;;
17670;SDS011;8954;48.694;8.940;2022-12-18T03:36:18;17.43;;;14.73;;
17670;SDS011;8954;48.694;8.940;2022-12-18T03:38:43;15.23;;;12.57;;
17670;SDS011;8954;48.694;8.940;2022-12-18T03:43:59;12.47;;;10.57;;
17670;SDS011;8954;48.694;8.940;2022-12-18T03:46:57;14.20;;;10.67;;
17670;SDS011;8954;48.694;8.940;2022-12-18T03:49:47;13.97;;;8.47;;
17670;SDS011;8954;48.694;8.940;2022-12-18T03:54:50;17.77;;;11.17;;
17670;SDS011;8954;48.694;8.940;2022-12-18T03:57:19;11.30;;;8.30;;
17670;SDS011;8954;48.694;8.940;2022-12-18T03:59:49;12.50;;;8.83;;
17670;SDS011;8954;48.694;8.940;2022-12-18T04:02:17;19.17;;;13.57;;
17670;SDS011;8954;48.694;8.940;2022-12-18T04:04:43;22.13;;;13.50;;
17670;SDS011;8954;48.694;8.940;2022-12-18T04:07:12;17.27;;;11.60;;
17670;SDS011;8954;48.694;8.940;2022-12-18T04:09:39;17.70;;;13.73;;
17670;SDS011;8954;48.694;8.940;2022-12-18T04:12:06;17.70;;;13.00;;
17670;SDS011;8954;48.694;8.940;2022-12-18T04:14:33;9.93;;;8.20;;
17670;SDS011;8954;48.694;8.940;2022-12-18T04:17:00;18.90;;;12.13;;
17670;SDS011;8954;48.694;8.940;2022-12-18T04:19:27;20.73;;;14.10;;
17670;SDS011;8954;48.694;8.940;2022-12-18T04:21:55;16.10;;;13.13;;
17670;SDS011;8954;48.694;8.940;2022-12-18T04:24:20;20.37;;;12.70;;
17670;SDS011;8954;48.694;8.940;2022-12-18T04:26:46;15.27;;;10.93;;
17670;SDS011;8954;48.694;8.940;2022-12-18T04:29:11;19.70;;;14.53;;
17670;SDS011;8954;48.694;8.940;2022-12-18T04:31:37;6.50;;;4.77;;
17670;SDS011;8954;48.694;8.940;2022-12-18T04:34:03;20.27;;;10.70;;
17670;SDS011;8954;48.694;8.940;2022-12-18T04:36:29;10.93;;;9.57;;
17670;SDS011;8954;48.694;8.940;2022-12-18T04:38:54;15.63;;;11.67;;
17670;SDS011;8954;48.694;8.940;2022-12-18T04:41:20;19.77;;;13.63;;
17670;SDS011;8954;48.694;8.940;2022-12-18T04:43:45;6.73;;;5.77;;
17670;SDS011;8954;48.694;8.940;2022-12-18T04:46:11;14.97;;;10.53;;
17670;SDS011;8954;48.694;8.940;2022-12-18T04:48:37;14.10;;;11.00;;
17670;SDS011;8954;48.694;8.940;2022-12-18T04:51:03;27.50;;;18.87;;
17670;SDS011;8954;48.694;8.940;2022-12-18T04:53:29;17.33;;;13.80;;
17670;SDS011;8954;48.694;8.940;2022-12-18T04:56:30;16.40;;;11.83;;
17670;SDS011;8954;48.694;8.940;2022-12-18T04:58:47;21.97;;;19.93;;
17670;SDS011;8954;48.694;8.940;2022-12-18T05:01:14;19.07;;;13.77;;
17670;SDS011;8954;48.694;8.940;2022-12-18T05:03:41;14.73;;;13.20;;
17670;SDS011;8954;48.694;8.940;2022-12-18T05:06:06;17.17;;;15.47;;
17670;SDS011;8954;48.694;8.940;2022-12-18T05:08:32;21.87;;;17.20;;
17670;SDS011;8954;48.694;8.940;2022-12-18T05:11:03;19.17;;;15.73;;
17670;SDS011;8954;48.694;8.940;2022-12-18T05:13:46;17.97;;;12.60;;
17670;SDS011;8954;48.694;8.940;2022-12-18T05:16:12;22.07;;;19.50;;
17670;SDS011;8954;48.694;8.940;2022-12-18T05:18:38;18.97;;;16.97;;
17670;SDS011;8954;48.694;8.940;2022-12-18T05:21:04;18.67;;;15.13;;
17670;SDS011;8954;48.694;8.940;2022-12-18T05:23:30;21.73;;;15.87;;
17670;SDS011;8954;48.694;8.940;2022-12-18T05:25:57;22.20;;;19.83;;
17670;SDS011;8954;48.694;8.940;2022-12-18T05:28:25;18.57;;;14.57;;
17670;SDS011;8954;48.694;8.940;2022-12-18T05:30:56;18.30;;;14.27;;
17670;SDS011;8954;48.694;8.940;2022-12-18T05:33:24;19.67;;;12.87;;
17670;SDS011;8954;48.694;8.940;2022-12-18T05:35:52;18.17;;;14.87;;
17670;SDS011;8954;48.694;8.940;2022-12-18T05:38:18;17.23;;;14.40;;
17670;SDS011;8954;48.694;8.940;2022-12-18T05:40:45;17.50;;;14.70;;
17670;SDS011;8954;48.694;8.940;2022-12-18T05:43:11;17.63;;;14.33;;
17670;SDS011;8954;48.694;8.940;2022-12-18T05:45:37;18.70;;;13.80;;
17670;SDS011;8954;48.694;8.940;2022-12-18T05:48:04;16.10;;;13.40;;
17670;SDS011;8954;48.694;8.940;2022-12-18T05:50:30;15.33;;;13.23;;
17670;SDS011;8954;48.694;8.940;2022-12-18T05:52:55;15.23;;;12.50;;
17670;SDS011;8954;48.694;8.940;2022-12-18T05:55:21;15.17;;;12.57;;
17670;SDS011;8954;48.694;8.940;2022-12-18T05:57:46;16.63;;;13.03;;
17670;SDS011;8954;48.694;8.940;2022-12-18T06:00:12;13.17;;;11.83;;
17670;SDS011;8954;48.694;8.940;2022-12-18T06:02:38;16.27;;;13.50;;
17670;SDS011;8954;48.694;8.940;2022-12-18T06:05:04;12.40;;;11.13;;
17670;SDS011;8954;48.694;8.940;2022-12-18T06:07:30;15.53;;;13.07;;
17670;SDS011;8954;48.694;8.940;2022-12-18T06:09:55;17.97;;;16.27;;
17670;SDS011;8954;48.694;8.940;2022-12-18T06:12:21;16.53;;;13.33;;
17670;SDS011;8954;48.694;8.940;2022-12-18T06:14:46;18.53;;;14.53;;
17670;SDS011;8954;48.694;8.940;2022-12-18T06:17:12;16.77;;;12.50;;
17670;SDS011;8954;48.694;8.940;2022-12-18T06:19:37;16.60;;;14.13;;
17670;SDS011;8954;48.694;8.940;2022-12-18T06:22:03;19.50;;;14.27;;
17670;SDS011;8954;48.694;8.940;2022-12-18T06:24:28;17.67;;;15.13;;
17670;SDS011;8954;48.694;8.940;2022-12-18T06:26:55;17.60;;;13.37;;
17670;SDS011;8954;48.694;8.940;2022-12-18T06:29:20;18.30;;;13.93;;
17670;SDS011;8954;48.694;8.940;2022-12-18T06:31:46;21.10;;;16.07;;
17670;SDS011;8954;48.694;8.940;2022-12-18T06:34:11;20.57;;;16.47;;
17670;SDS011;8954;48.694;8.940;2022-12-18T06:36:37;20.27;;;18.07;;
17670;SDS011;8954;48.694;8.940;2022-12-18T06:39:02;15.57;;;13.00;;
17670;SDS011;8954;48.694;8.940;2022-12-18T06:41:28;16.97;;;14.27;;
17670;SDS011;8954;48.694;8.940;2022-12-18T06:43:54;8.77;;;5.40;;
17670;SDS011;8954;48.694;8.940;2022-12-18T06:46:19;13.23;;;11.60;;
17670;SDS011;8954;48.694;8.940;2022-12-18T06:48:48;20.30;;;18.30;;
17670;SDS011;8954;48.694;8.940;2022-12-18T06:51:18;10.07;;;7.97;;
17670;SDS011;8954;48.694;8.940;2022-12-18T06:53:45;17.97;;;12.60;;
17670;SDS011;8954;48.694;8.940;2022-12-18T06:56:10;19.17;;;17.27;;
17670;SDS011;8954;48.694;8.940;2022-12-18T06:58:36;18.33;;;16.43;;
17670;SDS011;8954;48.694;8.940;2022-12-18T07:01:06;7.03;;;6.40;;
17670;SDS011;8954;48.694;8.940;2022-12-18T07:03:34;16.43;;;13.53;;
17670;SDS011;8954;48.694;8.940;2022-12-18T07:06:00;12.73;;;10.10;;
17670;SDS011;8954;48.694;8.940;2022-12-18T07:08:26;16.00;;;12.97;;
17670;SDS011;8954;48.694;8.940;2022-12-18T07:10:51;14.47;;;11.23;;
17670;SDS011;8954;48.694;8.940;2022-12-18T07:13:18;17.80;;;13.57;;
17670;SDS011;8954;48.694;8.940;2022-12-18T07:15:44;16.90;;;13.00;;
17670;SDS011;8954;48.694;8.940;2022-12-18T07:18:10;20.00;;;15.53;;
17670;SDS011;8954;48.694;8.940;2022-12-18T07:20:35;15.17;;;11.47;;
17670;SDS011;8954;48.694;8.940;2022-12-18T07:23:01;18.03;;;14.50;;
17670;SDS011;8954;48.694;8.940;2022-12-18T07:25:28;18.43;;;12.67;;
17670;SDS011;8954;48.694;8.940;2022-12-18T07:27:53;19.07;;;13.37;;
17670;SDS011;8954;48.694;8.940;2022-12-18T07:30:19;16.87;;;12.83;;
17670;SDS011;8954;48.694;8.940;2022-12-18T07:32:45;18.00;;;12.87;;
17670;SDS011;8954;48.694;8.940;2022-12-18T07:35:10;19.67;;;14.37;;
17670;SDS011;8954;48.694;8.940;2022-12-18T07:37:36;15.83;;;12.23;;
17670;SDS011;8954;48.694;8.940;2022-12-18T07:40:01;18.17;;;13.37;;
17670;SDS011;8954;48.694;8.940;2022-12-18T07:42:27;12.37;;;10.23;;
17670;SDS011;8954;48.694;8.940;2022-12-18T07:44:55;20.73;;;13.53;;
17670;SDS011;8954;48.694;8.940;2022-12-18T07:47:21;18.20;;;16.20;;
17670;SDS011;8954;48.694;8.940;2022-12-18T07:49:47;19.67;;;17.57;;
17670;SDS011;8954;48.694;8.940;2022-12-18T07:52:14;19.50;;;13.73;;
17670;SDS011;8954;48.694;8.940;2022-12-18T07:54:40;14.30;;;12.60;;
17670;SDS011;8954;48.694;8.940;2022-12-18T07:57:13;17.37;;;14.00;;
17670;SDS011;8954;48.694;8.940;2022-12-18T07:59:39;16.00;;;12.83;;
17670;SDS011;8954;48.694;8.940;2022-12-18T08:02:05;15.20;;;12.47;;
17670;SDS011;8954;48.694;8.940;2022-12-18T08:04:31;18.57;;;12.83;;
17670;SDS011;8954;48.694;8.940;2022-12-18T08:06:56;18.53;;;15.33;;
17670;SDS011;8954;48.694;8.940;2022-12-18T08:09:22;15.30;;;12.93;;
17670;SDS011;8954;48.694;8.940;2022-12-18T08:11:47;17.63;;;13.83;;
17670;SDS011;8954;48.694;8.940;2022-12-18T08:14:13;16.57;;;12.40;;
17670;SDS011;8954;48.694;8.940;2022-12-18T08:16:39;17.43;;;13.40;;
17670;SDS011;8954;48.694;8.940;2022-12-18T08:19:05;17.90;;;14.83;;
17670;SDS011;8954;48.694;8.940;2022-12-18T08:21:31;19.00;;;14.40;;
17670;SDS011;8954;48.694;8.940;2022-12-18T08:23:58;19.30;;;15.07;;
17670;SDS011;8954;48.694;8.940;2022-12-18T08:26:25;16.97;;;13.63;;
17670;SDS011;8954;48.694;8.940;2022-12-18T08:28:53;18.27;;;14.47;;
17670;SDS011;8954;48.694;8.940;2022-12-18T08:31:20;17.13;;;14.80;;
17670;SDS011;8954;48.694;8.940;2022-12-18T08:33:48;22.00;;;16.73;;
17670;SDS011;8954;48.694;8.940;2022-12-18T08:36:15;18.97;;;13.87;;
17670;SDS011;8954;48.694;8.940;2022-12-18T08:38:41;24.50;;;17.43;;
17670;SDS011;8954;48.694;8.940;2022-12-18T08:41:10;15.23;;;12.63;;
17670;SDS011;8954;48.694;8.940;2022-12-18T08:43:37;15.43;;;13.83;;
17670;SDS011;8954;48.694;8.940;2022-12-18T08:46:26;15.87;;;14.17;;
17670;SDS011;8954;48.694;8.940;2022-12-18T08:48:56;13.93;;;11.40;;
17670;SDS011;8954;48.694;8.940;2022-12-18T08:51:22;14.93;;;12.33;;
17670;SDS011;8954;48.694;8.940;2022-12-18T08:53:47;16.00;;;13.87;;
17670;SDS011;8954;48.694;8.940;2022-12-18T08:56:13;14.93;;;12.07;;
17670;SDS011;8954;48.694;8.940;2022-12-18T08:58:40;14.20;;;12.70;;
17670;SDS011;8954;48.694;8.940;2022-12-18T09:01:07;14.60;;;13.07;;
17670;SDS011;8954;48.694;8.940;2022-12-18T09:03:34;17.90;;;16.23;;
17670;SDS011;8954;48.694;8.940;2022-12-18T09:06:00;14.87;;;13.37;;
17670;SDS011;8954;48.694;8.940;2022-12-18T09:08:27;14.37;;;12.23;;
17670;SDS011;8954;48.694;8.940;2022-12-18T09:10:53;15.03;;;12.80;;
17670;SDS011;8954;48.694;8.940;2022-12-18T09:13:19;14.27;;;11.77;;
17670;SDS011;8954;48.694;8.940;2022-12-18T09:15:46;14.20;;;12.70;;
17670;SDS011;8954;48.694;8.940;2022-12-18T09:18:14;13.30;;;11.80;;
17670;SDS011;8954;48.694;8.940;2022-12-18T09:20:41;15.53;;;13.50;;
17670;SDS011;8954;48.694;8.940;2022-12-18T09:23:07;17.90;;;16.10;;
17670;SDS011;8954;48.694;8.940;2022-12-18T09:25:33;13.03;;;11.73;;
17670;SDS011;8954;48.694;8.940;2022-12-18T09:28:01;15.03;;;13.13;;
17670;SDS011;8954;48.694;8.940;2022-12-18T09:30:28;12.53;;;11.33;;
17670;SDS011;8954;48.694;8.940;2022-12-18T09:32:54;13.50;;;12.00;;
17670;SDS011;8954;48.694;8.940;2022-12-18T09:35:20;14.20;;;12.80;;
17670;SDS011;8954;48.694;8.940;2022-12-18T09:37:46;12.43;;;11.13;;
17670;SDS011;8954;48.694;8.940;2022-12-18T09:40:19;7.90;;;7.17;;
17670;SDS011;8954;48.694;8.940;2022-12-18T09:42:57;3.60;;;3.33;;
17670;SDS011;8954;48.694;8.940;2022-12-18T09:45:28;4.77;;;4.57;;
17670;SDS011;8954;48.694;8.940;2022-12-18T09:48:03;4.40;;;4.30;;
17670;SDS011;8954;48.694;8.940;2022-12-18T09:50:32;4.50;;;4.40;;
17670;SDS011;8954;48.694;8.940;2022-12-18T09:53:02;4.30;;;4.20;;
17670;SDS011;8954;48.694;8.940;2022-12-18T09:55:36;0.07;;;0.07;;
17670;SDS011;8954;48.694;8.940;2022-12-18T09:58:07;0.00;;;0.00;;
17670;SDS011;8954;48.694;8.940;2022-12-18T10:00:43;0.00;;;0.00;;
17670;SDS011;8954;48.694;8.940;2022-12-18T10:03:11;0.00;;;0.00;;
17670;SDS011;8954;48.694;8.940;2022-12-18T10:08:49;0.00;;;0.00;;
17670;SDS011;8954;48.694;8.940;2022-12-18T10:11:43;0.00;;;0.00;;
17670;SDS011;8954;48.694;8.940;2022-12-18T10:19:48;0.00;;;0.00;;
17670;SDS011;8954;48.694;8.940;2022-12-18T10:28:30;0.00;;;0.00;;
17670;SDS011;8954;48.694;8.940;2022-12-18T10:31:00;0.00;;;0.00;;
17670;SDS011;8954;48.694;8.940;2022-12-18T10:33:33;0.00;;;0.00;;
17670;SDS011;8954;48.694;8.940;2022-12-18T10:35:59;0.00;;;0.00;;
17670;SDS011;8954;48.694;8.940;2022-12-18T10:38:29;0.00;;;0.00;;
17670;SDS011;8954;48.694;8.940;2022-12-18T10:41:00;0.00;;;0.00;;
17670;SDS011;8954;48.694;8.940;2022-12-18T10:43:33;0.00;;;0.00;;
17670;SDS011;8954;48.694;8.940;2022-12-18T10:48:36;0.00;;;0.00;;
17670;SDS011;8954;48.694;8.940;2022-12-18T10:51:05;0.00;;;0.00;;
17670;SDS011;8954;48.694;8.940;2022-12-18T10:53:32;0.00;;;0.00;;
17670;SDS011;8954;48.694;8.940;2022-12-18T10:56:00;0.00;;;0.00;;
17670;SDS011;8954;48.694;8.940;2022-12-18T10:58:32;0.00;;;0.00;;
17670;SDS011;8954;48.694;8.940;2022-12-18T11:01:16;4.30;;;4.00;;
17670;SDS011;8954;48.694;8.940;2022-12-18T11:03:45;4.77;;;4.47;;
17670;SDS011;8954;48.694;8.940;2022-12-18T11:06:12;2.40;;;2.30;;
17670;SDS011;8954;48.694;8.940;2022-12-18T11:08:40;3.80;;;3.70;;
17670;SDS011;8954;48.694;8.940;2022-12-18T11:11:19;3.80;;;3.70;;
17670;SDS011;8954;48.694;8.940;2022-12-18T11:16:18;9.83;;;8.93;;
17670;SDS011;8954;48.694;8.940;2022-12-18T11:18:44;9.07;;;8.47;;
17670;SDS011;8954;48.694;8.940;2022-12-18T11:21:11;5.30;;;5.10;;
17670;SDS011;8954;48.694;8.940;2022-12-18T11:23:44;4.60;;;4.40;;
17670;SDS011;8954;48.694;8.940;2022-12-18T11:26:14;4.00;;;3.90;;
17670;SDS011;8954;48.694;8.940;2022-12-18T11:28:42;4.93;;;4.63;;
17670;SDS011;8954;48.694;8.940;2022-12-18T11:31:24;15.37;;;12.87;;
17670;SDS011;8954;48.694;8.940;2022-12-18T11:36:29;14.10;;;12.60;;
17670;SDS011;8954;48.694;8.940;2022-12-18T11:38:59;8.57;;;7.70;;
17670;SDS011;8954;48.694;8.940;2022-12-18T11:41:35;5.17;;;4.97;;
17670;SDS011;8954;48.694;8.940;2022-12-18T11:44:35;9.73;;;9.00;;
17670;SDS011;8954;48.694;8.940;2022-12-18T11:47:30;4.30;;;4.20;;
17670;SDS011;8954;48.694;8.940;2022-12-18T11:50:05;4.50;;;4.40;;
17670;SDS011;8954;48.694;8.940;2022-12-18T11:52:42;4.97;;;4.77;;
17670;SDS011;8954;48.694;8.940;2022-12-18T11:55:12;6.30;;;5.90;;
17670;SDS011;8954;48.694;8.940;2022-12-18T12:11:22;0.00;;;0.00;;
17670;SDS011;8954;48.694;8.940;2022-12-18T12:14:10;2.13;;;2.13;;
17670;SDS011;8954;48.694;8.940;2022-12-18T12:30:29;0.00;;;0.00;;
17670;SDS011;8954;48.694;8.940;2022-12-18T12:36:34;3.97;;;3.87;;
17670;SDS011;8954;48.694;8.940;2022-12-18T12:39:16;3.10;;;3.00;;
17670;SDS011;8954;48.694;8.940;2022-12-18T12:41:45;0.03;;;0.03;;
17670;SDS011;8954;48.694;8.940;2022-12-18T12:44:42;0.00;;;0.00;;
17670;SDS011;8954;48.694;8.940;2022-12-18T12:47:16;0.10;;;0.10;;
17670;SDS011;8954;48.694;8.940;2022-12-18T12:49:46;0.10;;;0.10;;
17670;SDS011;8954;48.694;8.940;2022-12-18T12:52:17;0.00;;;0.00;;
17670;SDS011;8954;48.694;8.940;2022-12-18T12:54:52;0.00;;;0.00;;
17670;SDS011;8954;48.694;8.940;2022-12-18T12:57:23;0.00;;;0.00;;
17670;SDS011;8954;48.694;8.940;2022-12-18T13:00:15;0.00;;;0.00;;
17670;SDS011;8954;48.694;8.940;2022-12-18T13:02:45;0.00;;;0.00;;
17670;SDS011;8954;48.694;8.940;2022-12-18T13:05:23;0.00;;;0.00;;
17670;SDS011;8954;48.694;8.940;2022-12-18T13:08:27;0.07;;;0.07;;
17670;SDS011;8954;48.694;8.940;2022-12-18T13:10:54;0.00;;;0.00;;
17670;SDS011;8954;48.694;8.940;2022-12-18T13:13:54;0.10;;;0.10;;
17670;SDS011;8954;48.694;8.940;2022-12-18T13:16:24;0.07;;;0.07;;
17670;SDS011;8954;48.694;8.940;2022-12-18T13:18:55;0.17;;;0.10;;
17670;SDS011;8954;48.694;8.940;2022-12-18T13:21:27;0.10;;;0.10;;
17670;SDS011;8954;48.694;8.940;2022-12-18T13:26:57;0.10;;;0.10;;
17670;SDS011;8954;48.694;8.940;2022-12-18T13:32:18;0.13;;;0.13;;
17670;SDS011;8954;48.694;8.940;2022-12-18T13:34:46;0.20;;;0.20;;
17670;SDS011;8954;48.694;8.940;2022-12-18T13:43:15;0.27;;;0.27;;
17670;SDS011;8954;48.694;8.940;2022-12-18T13:45:58;0.33;;;0.33;;
17670;SDS011;8954;48.694;8.940;2022-12-18T13:48:25;0.57;;;0.57;;
17670;SDS011;8954;48.694;8.940;2022-12-18T13:50:53;0.63;;;0.63;;
17670;SDS011;8954;48.694;8.940;2022-12-18T13:53:25;0.50;;;0.50;;
17670;SDS011;8954;48.694;8.940;2022-12-18T13:55:53;0.57;;;0.57;;
17670;SDS011;8954;48.694;8.940;2022-12-18T13:58:20;0.60;;;0.60;;
17670;SDS011;8954;48.694;8.940;2022-12-18T14:00:45;0.83;;;0.83;;
17670;SDS011;8954;48.694;8.940;2022-12-18T14:03:16;0.77;;;0.77;;
17670;SDS011;8954;48.694;8.940;2022-12-18T14:05:44;0.93;;;0.93;;
17670;SDS011;8954;48.694;8.940;2022-12-18T14:08:12;1.10;;;1.10;;
17670;SDS011;8954;48.694;8.940;2022-12-18T14:10:41;1.20;;;1.20;;
17670;SDS011;8954;48.694;8.940;2022-12-18T14:13:09;1.80;;;1.27;;
17670;SDS011;8954;48.694;8.940;2022-12-18T14:15:39;1.50;;;1.40;;
17670;SDS011;8954;48.694;8.940;2022-12-18T14:18:17;1.60;;;1.50;;
17670;SDS011;8954;48.694;8.940;2022-12-18T14:20:46;1.70;;;1.60;;
17670;SDS011;8954;48.694;8.940;2022-12-18T14:25:57;4.60;;;4.23;;
17670;SDS011;8954;48.694;8.940;2022-12-18T14:28:23;5.43;;;4.97;;
17670;SDS011;8954;48.694;8.940;2022-12-18T14:30:50;2.63;;;2.43;;
17670;SDS011;8954;48.694;8.940;2022-12-18T14:33:24;1.70;;;1.60;;
17670;SDS011;8954;48.694;8.940;2022-12-18T14:36:02;1.83;;;1.73;;
17670;SDS011;8954;48.694;8.940;2022-12-18T14:41:00;2.23;;;2.13;;
17670;SDS011;8954;48.694;8.940;2022-12-18T14:43:38;2.67;;;2.53;;
17670;SDS011;8954;48.694;8.940;2022-12-18T14:46:06;4.00;;;3.80;;
17670;SDS011;8954;48.694;8.940;2022-12-18T14:49:01;3.53;;;3.30;;
17670;SDS011;8954;48.694;8.940;2022-12-18T14:51:47;3.43;;;3.23;;
17670;SDS011;8954;48.694;8.940;2022-12-18T14:54:15;3.93;;;3.17;;
17670;SDS011;8954;48.694;8.940;2022-12-18T14:56:47;3.13;;;2.93;;
17670;SDS011;8954;48.694;8.940;2022-12-18T14:59:16;4.40;;;4.10;;
17670;SDS011;8954;48.694;8.940;2022-12-18T15:01:47;4.00;;;3.70;;
17670;SDS011;8954;48.694;8.940;2022-12-18T15:15:02;5.33;;;4.93;;
17670;SDS011;8954;48.694;8.940;2022-12-18T15:17:29;5.80;;;5.33;;
17670;SDS011;8954;48.694;8.940;2022-12-18T15:19:58;6.93;;;6.40;;
17670;SDS011;8954;48.694;8.940;2022-12-18T15:22:34;7.10;;;6.60;;
17670;SDS011;8954;48.694;8.940;2022-12-18T15:25:01;6.97;;;6.40;;
17670;SDS011;8954;48.694;8.940;2022-12-18T15:27:35;6.80;;;6.23;;
17670;SDS011;8954;48.694;8.940;2022-12-18T15:32:37;8.10;;;7.43;;
17670;SDS011;8954;48.694;8.940;2022-12-18T15:37:38;12.80;;;11.70;;
17670;SDS011;8954;48.694;8.940;2022-12-18T15:40:04;7.60;;;6.93;;
17670;SDS011;8954;48.694;8.940;2022-12-18T15:42:30;7.73;;;7.10;;
17670;SDS011;8954;48.694;8.940;2022-12-18T15:45:14;8.50;;;7.67;;
17670;SDS011;8954;48.694;8.940;2022-12-18T15:47:40;7.47;;;6.77;;
17670;SDS011;8954;48.694;8.940;2022-12-18T15:50:08;8.57;;;7.80;;
17670;SDS011;8954;48.694;8.940;2022-12-18T15:52:53;7.70;;;7.07;;
17670;SDS011;8954;48.694;8.940;2022-12-18T15:55:21;8.27;;;7.43;;
17670;SDS011;8954;48.694;8.940;2022-12-18T15:58:08;10.00;;;9.10;;
17670;SDS011;8954;48.694;8.940;2022-12-18T16:00:35;10.47;;;9.53;;
17670;SDS011;8954;48.694;8.940;2022-12-18T16:03:03;11.70;;;10.57;;
17670;SDS011;8954;48.694;8.940;2022-12-18T16:05:30;11.23;;;10.20;;
17670;SDS011;8954;48.694;8.940;2022-12-18T16:07:56;12.27;;;11.10;;
17670;SDS011;8954;48.694;8.940;2022-12-18T16:10:23;12.83;;;11.70;;
17670;SDS011;8954;48.694;8.940;2022-12-18T16:12:50;12.67;;;11.43;;
17670;SDS011;8954;48.694;8.940;2022-12-18T16:15:15;11.63;;;10.40;;
17670;SDS011;8954;48.694;8.940;2022-12-18T16:17:42;13.30;;;12.03;;
17670;SDS011;8954;48.694;8.940;2022-12-18T16:20:15;14.17;;;12.77;;
17670;SDS011;8954;48.694;8.940;2022-12-18T16:22:42;13.27;;;12.03;;
17670;SDS011;8954;48.694;8.940;2022-12-18T16:25:15;11.87;;;10.83;;
17670;SDS011;8954;48.694;8.940;2022-12-18T16:27:44;11.60;;;10.60;;
17670;SDS011;8954;48.694;8.940;2022-12-18T16:30:13;11.87;;;10.80;;
17670;SDS011;8954;48.694;8.940;2022-12-18T16:32:40;11.83;;;10.70;;
17670;SDS011;8954;48.694;8.940;2022-12-18T16:35:08;11.17;;;10.10;;
17670;SDS011;8954;48.694;8.940;2022-12-18T16:37:35;11.47;;;10.40;;
17670;SDS011;8954;48.694;8.940;2022-12-18T16:40:00;11.97;;;10.83;;
17670;SDS011;8954;48.694;8.940;2022-12-18T16:42:26;12.63;;;11.53;;
17670;SDS011;8954;48.694;8.940;2022-12-18T16:44:51;10.97;;;10.00;;
17670;SDS011;8954;48.694;8.940;2022-12-18T16:47:17;11.63;;;10.60;;
17670;SDS011;8954;48.694;8.940;2022-12-18T16:49:43;12.73;;;11.57;;
17670;SDS011;8954;48.694;8.940;2022-12-18T16:52:09;11.87;;;10.63;;